Castella, CA (96017)

4:06 AM PDT on March 30, 2017 (GMT -0700)
Castle Crags State Park | | Change Station

Elev 2075 ft 41.15 °N, 122.32 °W | Updated 14 minutes ago

Mostly Cloudy
Mostly Cloudy
46.4 °F
Feels Like 45 °F
N
4.0
Wind Variable Wind from NW
Gusts 5.0 mph

Today
High -- | Low -- °F
--% Chance of Precip.
Yesterday
High -- | Low -- °F
Precip. -- in
Pressure 29.99 in
Visibility 7.0 miles
Clouds Few 1700 ft
Mostly Cloudy 3700 ft
Overcast 5500 ft
Windchill 45 °F
Dew Point 45 °F
Humidity 96%
Rainfall 0.00 in
Snow Depth Not available.
6:55 AM 7:32 PM
Waxing Crescent, 8% visible
METAR KMHS 301056Z AUTO 35011G26KT 320V030 7SM -RA FEW017 BKN037 OVC055 04/01 A2996 RMK AO2 PK WND 01026/1053 RAE08B26 SLP155 P0002 T00440011
Pressure 29.99 in
Visibility 7.0 miles
Clouds Few 1700 ft
Mostly Cloudy 3700 ft
Overcast 5500 ft
Windchill 45 °F
Dew Point 45 °F
Humidity 96%
Rainfall 0.00 in
Snow Depth Not available.
6:55 AM 7:32 PM
Waxing Crescent, 8% visible
METAR KMHS 301056Z AUTO 35011G26KT 320V030 7SM -RA FEW017 BKN037 OVC055 04/01 A2996 RMK AO2 PK WND 01026/1053 RAE08B26 SLP155 P0002 T00440011

Get Severe Weather Alerts

Thanks for signing up!

Be on the lookout for a verification email in your inbox.

You'll start receiving the daily forecast at 8 AM.

×

10-Day Weather Forecast

Almanac

Astronomy

Mar. 30, 2017 Rise Set
Actual Time
Civil Twilight
Nautical Twilight
Astronomical Twilight
Moon
Length of Visible Light
Length of Day
Tomorrow will be .
, % of the Moon is Illuminated

Today's Extremes

State Highs State Lows

Community

WunderPhotos

Upload Photos

1,962,540 photos uploaded!

WunderBlog® & News

Nearby

Air Quality

  Air Quality AQ Index Pollutant
Not available.

Snow Depth

Station Depth Elevation

Earthquake Activity

City Distance Mag. Time & Date
Minimum magnitude displayed is 2.5.

Earthquake Activity

City Distance Mag. Time & Date
Minimum magnitude displayed is 2.5.

Coastal Water Temperatures

Place Temperature

Stations

Nearby Weather Stations

Station Location Temp. Windchill Dew Point Humidity Wind Precip. Elev Updated Type
                   

Watches & Warnings

There are currently no watches in effect.